Kechi, Kansas
Current Conditions -  °F | °C
As of 11:54 AM on Saturday 25 Oct 2014 (Local Time) from KAAO Reporting Station
Clear Clear  
Wind Chill: 79°   Ceiling: Unl
Heat Index: 81°   Visibility: NA
Dew Point: 63°   Wind: 7mph
Humidity: 58%   Direction: 130°SE
Pressure: 30.07"   Gusts: NA
Location:  37.8°N, 97.28°W
Report Text: KAAO 251654Z AUTO 13006KT CLR 26/17 A3007 RMK AO2 SLP171 T02610172 $
Loading
Personal Weather Stations






























Interactive Weather Map New forecast layout! Learn more

10-Day Weather Forecast

Advertisements
Track Severe Weather on mobile